sensor_id;sensor_type;location;lat;lon;timestamp;P1;durP1;ratioP1;P2;durP2;ratioP2
4808;SDS011;2418;49.930;8.606;2023-06-24T00:02:12;8.13;;;7.32;;
4808;SDS011;2418;49.930;8.606;2023-06-24T00:04:38;8.63;;;7.57;;
4808;SDS011;2418;49.930;8.606;2023-06-24T00:07:04;8.55;;;7.75;;
4808;SDS011;2418;49.930;8.606;2023-06-24T00:09:30;8.45;;;7.22;;
4808;SDS011;2418;49.930;8.606;2023-06-24T00:11:56;8.73;;;7.90;;
4808;SDS011;2418;49.930;8.606;2023-06-24T00:14:24;8.45;;;7.82;;
4808;SDS011;2418;49.930;8.606;2023-06-24T00:16:51;7.95;;;7.35;;
4808;SDS011;2418;49.930;8.606;2023-06-24T00:19:18;7.83;;;7.17;;
4808;SDS011;2418;49.930;8.606;2023-06-24T00:21:44;9.13;;;8.20;;
4808;SDS011;2418;49.930;8.606;2023-06-24T00:24:12;11.27;;;7.80;;
4808;SDS011;2418;49.930;8.606;2023-06-24T00:26:37;9.27;;;8.57;;
4808;SDS011;2418;49.930;8.606;2023-06-24T00:29:03;8.90;;;8.25;;
4808;SDS011;2418;49.930;8.606;2023-06-24T00:31:29;9.17;;;8.17;;
4808;SDS011;2418;49.930;8.606;2023-06-24T00:33:55;8.80;;;8.10;;
4808;SDS011;2418;49.930;8.606;2023-06-24T00:36:21;9.27;;;8.38;;
4808;SDS011;2418;49.930;8.606;2023-06-24T00:38:47;8.50;;;7.70;;
4808;SDS011;2418;49.930;8.606;2023-06-24T00:41:14;10.63;;;8.37;;
4808;SDS011;2418;49.930;8.606;2023-06-24T00:43:42;10.40;;;9.30;;
4808;SDS011;2418;49.930;8.606;2023-06-24T00:46:07;10.32;;;9.23;;
4808;SDS011;2418;49.930;8.606;2023-06-24T00:48:35;10.20;;;9.10;;
4808;SDS011;2418;49.930;8.606;2023-06-24T00:51:01;8.88;;;8.07;;
4808;SDS011;2418;49.930;8.606;2023-06-24T00:53:27;8.90;;;8.00;;
4808;SDS011;2418;49.930;8.606;2023-06-24T00:55:53;9.20;;;8.50;;
4808;SDS011;2418;49.930;8.606;2023-06-24T00:58:20;9.57;;;8.68;;
4808;SDS011;2418;49.930;8.606;2023-06-24T01:00:46;10.00;;;9.00;;
4808;SDS011;2418;49.930;8.606;2023-06-24T01:03:13;10.18;;;9.15;;
4808;SDS011;2418;49.930;8.606;2023-06-24T01:05:41;10.00;;;9.00;;
4808;SDS011;2418;49.930;8.606;2023-06-24T01:08:07;9.55;;;8.55;;
4808;SDS011;2418;49.930;8.606;2023-06-24T01:10:32;9.68;;;8.77;;
4808;SDS011;2418;49.930;8.606;2023-06-24T01:12:58;9.10;;;8.40;;
4808;SDS011;2418;49.930;8.606;2023-06-24T01:15:24;9.52;;;8.52;;
4808;SDS011;2418;49.930;8.606;2023-06-24T01:17:59;9.73;;;8.77;;
4808;SDS011;2418;49.930;8.606;2023-06-24T01:20:36;10.40;;;7.93;;
4808;SDS011;2418;49.930;8.606;2023-06-24T01:23:11;8.13;;;7.53;;
4808;SDS011;2418;49.930;8.606;2023-06-24T01:33:26;8.95;;;8.18;;
4808;SDS011;2418;49.930;8.606;2023-06-24T01:35:56;9.77;;;7.80;;
4808;SDS011;2418;49.930;8.606;2023-06-24T01:38:27;8.88;;;7.95;;
4808;SDS011;2418;49.930;8.606;2023-06-24T01:40:57;8.43;;;7.80;;
4808;SDS011;2418;49.930;8.606;2023-06-24T01:43:24;8.65;;;7.95;;
4808;SDS011;2418;49.930;8.606;2023-06-24T01:45:52;9.40;;;8.60;;
4808;SDS011;2418;49.930;8.606;2023-06-24T01:48:30;13.32;;;8.35;;
4808;SDS011;2418;49.930;8.606;2023-06-24T01:50:59;9.05;;;8.35;;
4808;SDS011;2418;49.930;8.606;2023-06-24T01:53:36;8.90;;;8.20;;
4808;SDS011;2418;49.930;8.606;2023-06-24T01:56:05;9.48;;;8.48;;
4808;SDS011;2418;49.930;8.606;2023-06-24T01:58:31;8.90;;;8.10;;
4808;SDS011;2418;49.930;8.606;2023-06-24T02:00:59;9.02;;;8.13;;
4808;SDS011;2418;49.930;8.606;2023-06-24T02:03:26;8.75;;;7.88;;
4808;SDS011;2418;49.930;8.606;2023-06-24T02:05:53;9.60;;;7.33;;
4808;SDS011;2418;49.930;8.606;2023-06-24T02:08:20;11.98;;;8.50;;
4808;SDS011;2418;49.930;8.606;2023-06-24T02:10:47;10.35;;;8.50;;
4808;SDS011;2418;49.930;8.606;2023-06-24T02:13:14;9.00;;;8.10;;
4808;SDS011;2418;49.930;8.606;2023-06-24T02:15:41;8.50;;;7.70;;
4808;SDS011;2418;49.930;8.606;2023-06-24T02:18:09;9.20;;;8.30;;
4808;SDS011;2418;49.930;8.606;2023-06-24T02:20:36;9.32;;;8.32;;
4808;SDS011;2418;49.930;8.606;2023-06-24T02:23:04;9.82;;;8.90;;
4808;SDS011;2418;49.930;8.606;2023-06-24T02:25:30;10.07;;;8.77;;
4808;SDS011;2418;49.930;8.606;2023-06-24T02:27:57;9.00;;;8.30;;
4808;SDS011;2418;49.930;8.606;2023-06-24T02:30:23;11.47;;;9.10;;
4808;SDS011;2418;49.930;8.606;2023-06-24T02:32:49;13.35;;;9.50;;
4808;SDS011;2418;49.930;8.606;2023-06-24T02:35:15;9.52;;;8.73;;
4808;SDS011;2418;49.930;8.606;2023-06-24T02:37:43;9.40;;;8.70;;
4808;SDS011;2418;49.930;8.606;2023-06-24T02:40:09;9.80;;;8.73;;
4808;SDS011;2418;49.930;8.606;2023-06-24T02:42:35;13.20;;;9.38;;
4808;SDS011;2418;49.930;8.606;2023-06-24T02:45:02;11.40;;;8.88;;
4808;SDS011;2418;49.930;8.606;2023-06-24T02:47:28;9.60;;;8.63;;
4808;SDS011;2418;49.930;8.606;2023-06-24T02:49:55;9.85;;;8.57;;
4808;SDS011;2418;49.930;8.606;2023-06-24T02:52:22;10.50;;;9.45;;
4808;SDS011;2418;49.930;8.606;2023-06-24T02:54:49;9.88;;;8.88;;
4808;SDS011;2418;49.930;8.606;2023-06-24T02:57:14;9.60;;;8.60;;
4808;SDS011;2418;49.930;8.606;2023-06-24T02:59:41;11.53;;;9.10;;
4808;SDS011;2418;49.930;8.606;2023-06-24T03:02:07;9.85;;;8.85;;
4808;SDS011;2418;49.930;8.606;2023-06-24T03:04:33;9.35;;;8.52;;
4808;SDS011;2418;49.930;8.606;2023-06-24T03:07:00;12.17;;;7.80;;
4808;SDS011;2418;49.930;8.606;2023-06-24T03:09:27;10.10;;;8.03;;
4808;SDS011;2418;49.930;8.606;2023-06-24T03:11:53;10.82;;;8.60;;
4808;SDS011;2418;49.930;8.606;2023-06-24T03:14:19;10.37;;;9.47;;
4808;SDS011;2418;49.930;8.606;2023-06-24T03:16:44;11.77;;;9.97;;
4808;SDS011;2418;49.930;8.606;2023-06-24T03:19:10;10.38;;;9.38;;
4808;SDS011;2418;49.930;8.606;2023-06-24T03:21:36;10.70;;;9.18;;
4808;SDS011;2418;49.930;8.606;2023-06-24T03:24:02;11.98;;;9.60;;
4808;SDS011;2418;49.930;8.606;2023-06-24T03:26:32;11.38;;;9.80;;
4808;SDS011;2418;49.930;8.606;2023-06-24T03:28:58;10.55;;;9.55;;
4808;SDS011;2418;49.930;8.606;2023-06-24T03:31:24;11.68;;;9.25;;
4808;SDS011;2418;49.930;8.606;2023-06-24T03:33:50;9.57;;;8.68;;
4808;SDS011;2418;49.930;8.606;2023-06-24T03:36:15;14.00;;;8.90;;
4808;SDS011;2418;49.930;8.606;2023-06-24T03:38:41;9.20;;;8.50;;
4808;SDS011;2418;49.930;8.606;2023-06-24T03:41:07;10.07;;;9.07;;
4808;SDS011;2418;49.930;8.606;2023-06-24T03:43:33;9.30;;;8.37;;
4808;SDS011;2418;49.930;8.606;2023-06-24T03:45:59;9.10;;;8.40;;
4808;SDS011;2418;49.930;8.606;2023-06-24T03:48:25;9.90;;;7.80;;
4808;SDS011;2418;49.930;8.606;2023-06-24T03:50:51;9.30;;;7.85;;
4808;SDS011;2418;49.930;8.606;2023-06-24T03:53:17;8.52;;;7.82;;
4808;SDS011;2418;49.930;8.606;2023-06-24T03:55:43;7.70;;;7.00;;
4808;SDS011;2418;49.930;8.606;2023-06-24T03:58:09;7.50;;;6.87;;
4808;SDS011;2418;49.930;8.606;2023-06-24T04:00:34;7.80;;;7.20;;
4808;SDS011;2418;49.930;8.606;2023-06-24T04:03:05;8.02;;;7.32;;
4808;SDS011;2418;49.930;8.606;2023-06-24T04:05:31;7.93;;;7.22;;
4808;SDS011;2418;49.930;8.606;2023-06-24T04:07:57;7.40;;;6.90;;
4808;SDS011;2418;49.930;8.606;2023-06-24T04:10:23;8.52;;;6.50;;
4808;SDS011;2418;49.930;8.606;2023-06-24T04:12:49;16.23;;;8.38;;
4808;SDS011;2418;49.930;8.606;2023-06-24T04:15:15;12.30;;;7.80;;
4808;SDS011;2418;49.930;8.606;2023-06-24T04:17:41;7.07;;;6.57;;
4808;SDS011;2418;49.930;8.606;2023-06-24T04:20:07;7.65;;;7.03;;
4808;SDS011;2418;49.930;8.606;2023-06-24T04:22:34;8.25;;;7.28;;
4808;SDS011;2418;49.930;8.606;2023-06-24T04:25:01;10.63;;;6.57;;
4808;SDS011;2418;49.930;8.606;2023-06-24T04:27:27;13.40;;;6.65;;
4808;SDS011;2418;49.930;8.606;2023-06-24T04:29:53;7.43;;;6.80;;
4808;SDS011;2418;49.930;8.606;2023-06-24T04:32:19;6.90;;;6.30;;
4808;SDS011;2418;49.930;8.606;2023-06-24T04:34:45;7.18;;;6.35;;
4808;SDS011;2418;49.930;8.606;2023-06-24T04:37:11;7.33;;;6.83;;
4808;SDS011;2418;49.930;8.606;2023-06-24T04:39:37;7.17;;;6.50;;
4808;SDS011;2418;49.930;8.606;2023-06-24T04:42:03;6.80;;;6.30;;
4808;SDS011;2418;49.930;8.606;2023-06-24T04:44:29;7.82;;;6.82;;
4808;SDS011;2418;49.930;8.606;2023-06-24T04:46:55;6.80;;;6.40;;
4808;SDS011;2418;49.930;8.606;2023-06-24T04:49:20;7.23;;;6.47;;
4808;SDS011;2418;49.930;8.606;2023-06-24T04:51:46;7.20;;;6.70;;
4808;SDS011;2418;49.930;8.606;2023-06-24T04:54:12;8.67;;;6.80;;
4808;SDS011;2418;49.930;8.606;2023-06-24T04:56:39;10.48;;;6.90;;
4808;SDS011;2418;49.930;8.606;2023-06-24T04:59:05;7.05;;;6.55;;
4808;SDS011;2418;49.930;8.606;2023-06-24T05:01:31;7.07;;;6.57;;
4808;SDS011;2418;49.930;8.606;2023-06-24T05:03:57;6.55;;;6.00;;
4808;SDS011;2418;49.930;8.606;2023-06-24T05:06:23;6.28;;;5.70;;
4808;SDS011;2418;49.930;8.606;2023-06-24T05:08:49;8.38;;;6.07;;
4808;SDS011;2418;49.930;8.606;2023-06-24T05:11:15;6.60;;;6.20;;
4808;SDS011;2418;49.930;8.606;2023-06-24T05:13:40;10.83;;;6.20;;
4808;SDS011;2418;49.930;8.606;2023-06-24T05:16:06;7.90;;;5.90;;
4808;SDS011;2418;49.930;8.606;2023-06-24T05:18:31;6.65;;;6.00;;
4808;SDS011;2418;49.930;8.606;2023-06-24T05:20:57;6.88;;;6.20;;
4808;SDS011;2418;49.930;8.606;2023-06-24T05:23:23;6.90;;;6.30;;
4808;SDS011;2418;49.930;8.606;2023-06-24T05:25:49;6.80;;;6.20;;
4808;SDS011;2418;49.930;8.606;2023-06-24T05:28:15;6.95;;;6.55;;
4808;SDS011;2418;49.930;8.606;2023-06-24T05:30:41;9.85;;;6.22;;
4808;SDS011;2418;49.930;8.606;2023-06-24T05:33:07;9.13;;;6.60;;
4808;SDS011;2418;49.930;8.606;2023-06-24T05:35:33;7.10;;;6.70;;
4808;SDS011;2418;49.930;8.606;2023-06-24T05:37:59;7.00;;;6.40;;
4808;SDS011;2418;49.930;8.606;2023-06-24T05:40:24;7.40;;;6.70;;
4808;SDS011;2418;49.930;8.606;2023-06-24T05:42:50;9.60;;;7.30;;
4808;SDS011;2418;49.930;8.606;2023-06-24T05:45:17;7.10;;;6.50;;
4808;SDS011;2418;49.930;8.606;2023-06-24T05:47:43;7.17;;;6.63;;
4808;SDS011;2418;49.930;8.606;2023-06-24T05:50:09;8.53;;;7.47;;
4808;SDS011;2418;49.930;8.606;2023-06-24T05:52:35;6.90;;;6.50;;
4808;SDS011;2418;49.930;8.606;2023-06-24T05:55:01;8.15;;;7.32;;
4808;SDS011;2418;49.930;8.606;2023-06-24T05:57:27;9.95;;;6.97;;
4808;SDS011;2418;49.930;8.606;2023-06-24T05:59:57;8.10;;;7.50;;
4808;SDS011;2418;49.930;8.606;2023-06-24T06:02:23;7.50;;;7.00;;
4808;SDS011;2418;49.930;8.606;2023-06-24T06:04:50;10.75;;;7.00;;
4808;SDS011;2418;49.930;8.606;2023-06-24T06:07:16;8.13;;;7.18;;
4808;SDS011;2418;49.930;8.606;2023-06-24T06:09:42;7.78;;;7.18;;
4808;SDS011;2418;49.930;8.606;2023-06-24T06:12:08;8.00;;;7.40;;
4808;SDS011;2418;49.930;8.606;2023-06-24T06:14:34;8.20;;;7.13;;
4808;SDS011;2418;49.930;8.606;2023-06-24T06:17:00;8.43;;;7.90;;
4808;SDS011;2418;49.930;8.606;2023-06-24T06:19:25;7.60;;;7.10;;
4808;SDS011;2418;49.930;8.606;2023-06-24T06:21:51;10.00;;;7.17;;
4808;SDS011;2418;49.930;8.606;2023-06-24T06:24:17;9.17;;;8.17;;
4808;SDS011;2418;49.930;8.606;2023-06-24T06:26:43;8.00;;;7.50;;
4808;SDS011;2418;49.930;8.606;2023-06-24T06:29:10;7.80;;;7.22;;
4808;SDS011;2418;49.930;8.606;2023-06-24T06:31:36;7.70;;;7.20;;
4808;SDS011;2418;49.930;8.606;2023-06-24T06:34:01;7.80;;;7.25;;
4808;SDS011;2418;49.930;8.606;2023-06-24T06:36:28;9.75;;;8.10;;
4808;SDS011;2418;49.930;8.606;2023-06-24T06:38:54;9.50;;;7.65;;
4808;SDS011;2418;49.930;8.606;2023-06-24T06:41:20;8.20;;;7.40;;
4808;SDS011;2418;49.930;8.606;2023-06-24T06:43:52;9.20;;;8.50;;
4808;SDS011;2418;49.930;8.606;2023-06-24T06:46:18;9.25;;;7.68;;
4808;SDS011;2418;49.930;8.606;2023-06-24T06:48:44;12.23;;;8.55;;
4808;SDS011;2418;49.930;8.606;2023-06-24T06:51:12;8.20;;;7.30;;
4808;SDS011;2418;49.930;8.606;2023-06-24T06:53:38;8.75;;;7.95;;
4808;SDS011;2418;49.930;8.606;2023-06-24T06:56:04;9.35;;;8.45;;
4808;SDS011;2418;49.930;8.606;2023-06-24T06:58:30;9.68;;;8.80;;
4808;SDS011;2418;49.930;8.606;2023-06-24T07:00:56;12.73;;;9.00;;
4808;SDS011;2418;49.930;8.606;2023-06-24T07:03:26;11.50;;;8.65;;
4808;SDS011;2418;49.930;8.606;2023-06-24T07:05:52;10.60;;;8.50;;
4808;SDS011;2418;49.930;8.606;2023-06-24T07:08:18;10.15;;;9.15;;
4808;SDS011;2418;49.930;8.606;2023-06-24T07:10:44;9.27;;;8.48;;
4808;SDS011;2418;49.930;8.606;2023-06-24T07:13:10;7.80;;;7.10;;
4808;SDS011;2418;49.930;8.606;2023-06-24T07:15:36;11.77;;;8.40;;
4808;SDS011;2418;49.930;8.606;2023-06-24T07:18:02;11.68;;;8.57;;
4808;SDS011;2418;49.930;8.606;2023-06-24T07:20:28;10.55;;;9.75;;
4808;SDS011;2418;49.930;8.606;2023-06-24T07:22:54;9.48;;;8.65;;
4808;SDS011;2418;49.930;8.606;2023-06-24T07:25:20;11.50;;;8.50;;
4808;SDS011;2418;49.930;8.606;2023-06-24T07:27:46;8.50;;;7.65;;
4808;SDS011;2418;49.930;8.606;2023-06-24T07:30:12;10.75;;;9.15;;
4808;SDS011;2418;49.930;8.606;2023-06-24T07:32:43;7.57;;;7.07;;
4808;SDS011;2418;49.930;8.606;2023-06-24T07:35:09;10.85;;;8.80;;
4808;SDS011;2418;49.930;8.606;2023-06-24T07:37:35;11.90;;;9.07;;
4808;SDS011;2418;49.930;8.606;2023-06-24T07:40:01;9.07;;;8.20;;
4808;SDS011;2418;49.930;8.606;2023-06-24T07:42:28;8.90;;;7.90;;
4808;SDS011;2418;49.930;8.606;2023-06-24T07:44:54;8.98;;;7.90;;
4808;SDS011;2418;49.930;8.606;2023-06-24T07:47:20;12.05;;;7.50;;
4808;SDS011;2418;49.930;8.606;2023-06-24T07:49:46;12.30;;;7.78;;
4808;SDS011;2418;49.930;8.606;2023-06-24T07:52:12;8.43;;;7.60;;
4808;SDS011;2418;49.930;8.606;2023-06-24T07:54:38;8.20;;;7.50;;
4808;SDS011;2418;49.930;8.606;2023-06-24T07:57:04;8.33;;;7.63;;
4808;SDS011;2418;49.930;8.606;2023-06-24T07:59:30;8.37;;;7.57;;
4808;SDS011;2418;49.930;8.606;2023-06-24T08:01:56;8.47;;;6.90;;
4808;SDS011;2418;49.930;8.606;2023-06-24T08:04:23;8.83;;;7.93;;
4808;SDS011;2418;49.930;8.606;2023-06-24T08:06:49;7.50;;;6.90;;
4808;SDS011;2418;49.930;8.606;2023-06-24T08:09:16;7.30;;;6.80;;
4808;SDS011;2418;49.930;8.606;2023-06-24T08:11:42;6.85;;;6.40;;
4808;SDS011;2418;49.930;8.606;2023-06-24T08:14:08;8.40;;;7.55;;
4808;SDS011;2418;49.930;8.606;2023-06-24T08:16:34;8.57;;;7.68;;
4808;SDS011;2418;49.930;8.606;2023-06-24T08:19:00;8.40;;;7.70;;
4808;SDS011;2418;49.930;8.606;2023-06-24T08:21:26;11.20;;;7.38;;
4808;SDS011;2418;49.930;8.606;2023-06-24T08:23:52;7.40;;;6.80;;
4808;SDS011;2418;49.930;8.606;2023-06-24T08:26:19;7.82;;;7.22;;
4808;SDS011;2418;49.930;8.606;2023-06-24T08:28:46;9.48;;;8.48;;
4808;SDS011;2418;49.930;8.606;2023-06-24T08:31:12;7.10;;;6.60;;
4808;SDS011;2418;49.930;8.606;2023-06-24T08:33:38;7.90;;;7.10;;
4808;SDS011;2418;49.930;8.606;2023-06-24T08:36:10;7.75;;;7.05;;
4808;SDS011;2418;49.930;8.606;2023-06-24T08:38:36;6.50;;;5.95;;
4808;SDS011;2418;49.930;8.606;2023-06-24T08:41:01;7.97;;;7.00;;
4808;SDS011;2418;49.930;8.606;2023-06-24T08:43:27;6.75;;;6.35;;
4808;SDS011;2418;49.930;8.606;2023-06-24T08:45:53;6.50;;;6.00;;
4808;SDS011;2418;49.930;8.606;2023-06-24T08:48:20;7.25;;;6.65;;
4808;SDS011;2418;49.930;8.606;2023-06-24T08:50:48;7.88;;;6.45;;
4808;SDS011;2418;49.930;8.606;2023-06-24T08:53:16;6.43;;;5.93;;
4808;SDS011;2418;49.930;8.606;2023-06-24T08:55:44;6.50;;;6.00;;
4808;SDS011;2418;49.930;8.606;2023-06-24T08:58:11;6.70;;;6.30;;
4808;SDS011;2418;49.930;8.606;2023-06-24T09:00:37;6.70;;;6.15;;
4808;SDS011;2418;49.930;8.606;2023-06-24T09:03:03;6.93;;;6.53;;
4808;SDS011;2418;49.930;8.606;2023-06-24T09:05:29;6.25;;;5.85;;
4808;SDS011;2418;49.930;8.606;2023-06-24T09:07:55;5.82;;;5.35;;
4808;SDS011;2418;49.930;8.606;2023-06-24T09:10:34;5.57;;;5.13;;
4808;SDS011;2418;49.930;8.606;2023-06-24T09:13:00;4.97;;;4.50;;
4808;SDS011;2418;49.930;8.606;2023-06-24T09:15:33;6.10;;;5.50;;
4808;SDS011;2418;49.930;8.606;2023-06-24T09:17:59;6.50;;;6.00;;
4808;SDS011;2418;49.930;8.606;2023-06-24T09:20:26;6.30;;;6.00;;
4808;SDS011;2418;49.930;8.606;2023-06-24T09:22:57;6.35;;;5.85;;
4808;SDS011;2418;49.930;8.606;2023-06-24T09:25:23;7.00;;;5.10;;
4808;SDS011;2418;49.930;8.606;2023-06-24T09:27:49;6.75;;;6.35;;
4808;SDS011;2418;49.930;8.606;2023-06-24T09:30:18;5.97;;;5.68;;
4808;SDS011;2418;49.930;8.606;2023-06-24T09:32:50;6.43;;;5.80;;
4808;SDS011;2418;49.930;8.606;2023-06-24T09:35:17;6.15;;;5.75;;
4808;SDS011;2418;49.930;8.606;2023-06-24T09:37:48;7.78;;;5.80;;
4808;SDS011;2418;49.930;8.606;2023-06-24T09:40:14;6.28;;;5.97;;
4808;SDS011;2418;49.930;8.606;2023-06-24T09:42:47;7.13;;;6.45;;
4808;SDS011;2418;49.930;8.606;2023-06-24T09:45:13;6.80;;;6.10;;
4808;SDS011;2418;49.930;8.606;2023-06-24T09:47:39;6.70;;;6.30;;
4808;SDS011;2418;49.930;8.606;2023-06-24T09:50:05;6.40;;;6.00;;
4808;SDS011;2418;49.930;8.606;2023-06-24T09:52:31;6.10;;;5.70;;
4808;SDS011;2418;49.930;8.606;2023-06-24T09:54:59;5.93;;;5.60;;
4808;SDS011;2418;49.930;8.606;2023-06-24T09:57:28;6.25;;;5.80;;
4808;SDS011;2418;49.930;8.606;2023-06-24T09:59:55;6.05;;;5.55;;
4808;SDS011;2418;49.930;8.606;2023-06-24T10:02:21;6.55;;;6.10;;
4808;SDS011;2418;49.930;8.606;2023-06-24T10:04:47;6.88;;;5.80;;
4808;SDS011;2418;49.930;8.606;2023-06-24T10:07:14;7.20;;;6.80;;
4808;SDS011;2418;49.930;8.606;2023-06-24T10:09:40;7.10;;;6.00;;
4808;SDS011;2418;49.930;8.606;2023-06-24T10:12:06;4.60;;;4.30;;
4808;SDS011;2418;49.930;8.606;2023-06-24T10:14:32;5.00;;;4.60;;
4808;SDS011;2418;49.930;8.606;2023-06-24T10:17:02;4.88;;;4.57;;
4808;SDS011;2418;49.930;8.606;2023-06-24T10:19:28;4.55;;;4.15;;
4808;SDS011;2418;49.930;8.606;2023-06-24T10:21:58;5.03;;;4.82;;
4808;SDS011;2418;49.930;8.606;2023-06-24T10:24:31;5.43;;;4.93;;
4808;SDS011;2418;49.930;8.606;2023-06-24T10:27:01;5.90;;;4.53;;
4808;SDS011;2418;49.930;8.606;2023-06-24T10:29:45;5.07;;;4.50;;
4808;SDS011;2418;49.930;8.606;2023-06-24T10:32:12;4.82;;;4.43;;
4808;SDS011;2418;49.930;8.606;2023-06-24T10:37:25;4.38;;;3.97;;
4808;SDS011;2418;49.930;8.606;2023-06-24T10:42:29;4.43;;;4.22;;
4808;SDS011;2418;49.930;8.606;2023-06-24T10:44:56;4.37;;;4.07;;
4808;SDS011;2418;49.930;8.606;2023-06-24T10:47:22;4.07;;;3.90;;
4808;SDS011;2418;49.930;8.606;2023-06-24T10:49:48;4.32;;;4.13;;
4808;SDS011;2418;49.930;8.606;2023-06-24T10:52:14;5.50;;;4.75;;
4808;SDS011;2418;49.930;8.606;2023-06-24T10:54:43;4.68;;;4.25;;
4808;SDS011;2418;49.930;8.606;2023-06-24T10:57:10;4.70;;;4.40;;
4808;SDS011;2418;49.930;8.606;2023-06-24T10:59:39;4.80;;;4.50;;
4808;SDS011;2418;49.930;8.606;2023-06-24T11:02:08;4.20;;;3.90;;
4808;SDS011;2418;49.930;8.606;2023-06-24T11:04:48;3.92;;;3.78;;
4808;SDS011;2418;49.930;8.606;2023-06-24T11:07:14;4.03;;;3.92;;
4808;SDS011;2418;49.930;8.606;2023-06-24T11:09:42;3.97;;;3.80;;
4808;SDS011;2418;49.930;8.606;2023-06-24T11:12:08;4.40;;;4.00;;
4808;SDS011;2418;49.930;8.606;2023-06-24T11:14:35;4.22;;;4.03;;
4808;SDS011;2418;49.930;8.606;2023-06-24T11:17:02;3.90;;;3.70;;
4808;SDS011;2418;49.930;8.606;2023-06-24T11:19:29;4.18;;;3.92;;
4808;SDS011;2418;49.930;8.606;2023-06-24T11:21:58;4.90;;;3.80;;
4808;SDS011;2418;49.930;8.606;2023-06-24T11:24:25;4.00;;;3.60;;
4808;SDS011;2418;49.930;8.606;2023-06-24T11:26:51;3.92;;;3.63;;
4808;SDS011;2418;49.930;8.606;2023-06-24T11:29:16;3.90;;;3.80;;
4808;SDS011;2418;49.930;8.606;2023-06-24T11:31:44;4.30;;;4.00;;
4808;SDS011;2418;49.930;8.606;2023-06-24T11:34:10;6.30;;;4.10;;
4808;SDS011;2418;49.930;8.606;2023-06-24T11:36:36;4.13;;;3.73;;
4808;SDS011;2418;49.930;8.606;2023-06-24T11:39:02;4.63;;;4.43;;
4808;SDS011;2418;49.930;8.606;2023-06-24T11:41:28;3.78;;;3.60;;
4808;SDS011;2418;49.930;8.606;2023-06-24T11:43:54;3.80;;;3.70;;
4808;SDS011;2418;49.930;8.606;2023-06-24T11:48:52;3.85;;;3.65;;
4808;SDS011;2418;49.930;8.606;2023-06-24T11:51:18;3.90;;;3.70;;
4808;SDS011;2418;49.930;8.606;2023-06-24T11:53:44;4.50;;;4.10;;
4808;SDS011;2418;49.930;8.606;2023-06-24T11:56:11;4.40;;;4.20;;
4808;SDS011;2418;49.930;8.606;2023-06-24T11:58:38;4.57;;;4.27;;
4808;SDS011;2418;49.930;8.606;2023-06-24T12:01:06;4.33;;;4.13;;
4808;SDS011;2418;49.930;8.606;2023-06-24T12:03:33;4.50;;;4.20;;
4808;SDS011;2418;49.930;8.606;2023-06-24T12:05:59;4.85;;;4.65;;
4808;SDS011;2418;49.930;8.606;2023-06-24T12:08:26;3.80;;;3.60;;
4808;SDS011;2418;49.930;8.606;2023-06-24T12:10:52;4.88;;;4.20;;
4808;SDS011;2418;49.930;8.606;2023-06-24T12:13:18;4.03;;;3.92;;
4808;SDS011;2418;49.930;8.606;2023-06-24T12:15:44;4.40;;;4.20;;
4808;SDS011;2418;49.930;8.606;2023-06-24T12:18:11;4.43;;;4.13;;
4808;SDS011;2418;49.930;8.606;2023-06-24T12:20:39;4.40;;;4.20;;
4808;SDS011;2418;49.930;8.606;2023-06-24T12:23:05;4.80;;;4.50;;
4808;SDS011;2418;49.930;8.606;2023-06-24T12:25:31;5.05;;;4.32;;
4808;SDS011;2418;49.930;8.606;2023-06-24T12:27:57;4.40;;;4.20;;
4808;SDS011;2418;49.930;8.606;2023-06-24T12:30:24;4.38;;;4.07;;
4808;SDS011;2418;49.930;8.606;2023-06-24T12:32:50;5.63;;;3.85;;
4808;SDS011;2418;49.930;8.606;2023-06-24T12:35:16;4.65;;;4.35;;
4808;SDS011;2418;49.930;8.606;2023-06-24T12:37:42;4.40;;;4.10;;
4808;SDS011;2418;49.930;8.606;2023-06-24T12:40:10;3.60;;;3.50;;
4808;SDS011;2418;49.930;8.606;2023-06-24T12:42:35;3.78;;;3.58;;
4808;SDS011;2418;49.930;8.606;2023-06-24T12:45:01;4.05;;;3.85;;
4808;SDS011;2418;49.930;8.606;2023-06-24T12:47:27;4.55;;;4.25;;
4808;SDS011;2418;49.930;8.606;2023-06-24T12:49:53;4.03;;;3.83;;
4808;SDS011;2418;49.930;8.606;2023-06-24T12:52:19;4.18;;;3.97;;
4808;SDS011;2418;49.930;8.606;2023-06-24T12:54:45;4.10;;;3.80;;
4808;SDS011;2418;49.930;8.606;2023-06-24T12:57:11;3.65;;;3.47;;
4808;SDS011;2418;49.930;8.606;2023-06-24T12:59:37;4.40;;;3.50;;
4808;SDS011;2418;49.930;8.606;2023-06-24T13:02:03;3.60;;;3.50;;
4808;SDS011;2418;49.930;8.606;2023-06-24T13:04:29;4.13;;;3.93;;
4808;SDS011;2418;49.930;8.606;2023-06-24T13:06:56;4.47;;;4.37;;
4808;SDS011;2418;49.930;8.606;2023-06-24T13:09:22;4.30;;;4.00;;
4808;SDS011;2418;49.930;8.606;2023-06-24T13:11:48;3.85;;;3.75;;
4808;SDS011;2418;49.930;8.606;2023-06-24T13:14:14;4.50;;;4.10;;
4808;SDS011;2418;49.930;8.606;2023-06-24T13:16:40;4.50;;;4.30;;
4808;SDS011;2418;49.930;8.606;2023-06-24T13:19:06;4.60;;;4.40;;
4808;SDS011;2418;49.930;8.606;2023-06-24T13:21:32;4.50;;;4.30;;
4808;SDS011;2418;49.930;8.606;2023-06-24T13:23:58;3.58;;;3.47;;
4808;SDS011;2418;49.930;8.606;2023-06-24T13:26:23;4.28;;;4.10;;
4808;SDS011;2418;49.930;8.606;2023-06-24T13:28:49;3.70;;;3.60;;
4808;SDS011;2418;49.930;8.606;2023-06-24T13:31:15;4.17;;;3.97;;
4808;SDS011;2418;49.930;8.606;2023-06-24T13:33:41;4.18;;;4.07;;
4808;SDS011;2418;49.930;8.606;2023-06-24T13:36:08;4.27;;;4.07;;
4808;SDS011;2418;49.930;8.606;2023-06-24T13:38:36;6.13;;;4.00;;
4808;SDS011;2418;49.930;8.606;2023-06-24T13:41:02;8.50;;;4.30;;
4808;SDS011;2418;49.930;8.606;2023-06-24T13:43:28;4.55;;;4.35;;
4808;SDS011;2418;49.930;8.606;2023-06-24T13:45:54;3.90;;;3.80;;
4808;SDS011;2418;49.930;8.606;2023-06-24T13:48:20;3.90;;;3.80;;
4808;SDS011;2418;49.930;8.606;2023-06-24T13:50:46;3.90;;;3.70;;
4808;SDS011;2418;49.930;8.606;2023-06-24T13:53:11;3.57;;;3.43;;
4808;SDS011;2418;49.930;8.606;2023-06-24T13:55:37;3.70;;;3.60;;
4808;SDS011;2418;49.930;8.606;2023-06-24T13:58:03;3.92;;;3.72;;
4808;SDS011;2418;49.930;8.606;2023-06-24T14:00:29;4.30;;;4.10;;
4808;SDS011;2418;49.930;8.606;2023-06-24T14:02:55;4.03;;;3.83;;
4808;SDS011;2418;49.930;8.606;2023-06-24T14:05:21;4.07;;;3.77;;
4808;SDS011;2418;49.930;8.606;2023-06-24T14:07:47;4.25;;;4.15;;
4808;SDS011;2418;49.930;8.606;2023-06-24T14:10:13;3.88;;;3.78;;
4808;SDS011;2418;49.930;8.606;2023-06-24T14:12:39;4.35;;;3.97;;
4808;SDS011;2418;49.930;8.606;2023-06-24T14:15:07;4.15;;;4.05;;
4808;SDS011;2418;49.930;8.606;2023-06-24T14:17:33;3.90;;;3.80;;
4808;SDS011;2418;49.930;8.606;2023-06-24T14:19:59;4.50;;;4.30;;
4808;SDS011;2418;49.930;8.606;2023-06-24T14:22:25;3.90;;;3.80;;
4808;SDS011;2418;49.930;8.606;2023-06-24T14:24:51;4.85;;;4.65;;
4808;SDS011;2418;49.930;8.606;2023-06-24T14:27:17;4.22;;;4.03;;
4808;SDS011;2418;49.930;8.606;2023-06-24T14:29:42;6.70;;;4.30;;
4808;SDS011;2418;49.930;8.606;2023-06-24T14:32:08;4.10;;;4.00;;
4808;SDS011;2418;49.930;8.606;2023-06-24T14:34:34;4.07;;;3.88;;
4808;SDS011;2418;49.930;8.606;2023-06-24T14:37:00;4.55;;;4.25;;
4808;SDS011;2418;49.930;8.606;2023-06-24T14:39:26;3.90;;;3.80;;
4808;SDS011;2418;49.930;8.606;2023-06-24T14:41:53;4.65;;;4.25;;
4808;SDS011;2418;49.930;8.606;2023-06-24T14:44:19;5.47;;;5.07;;
4808;SDS011;2418;49.930;8.606;2023-06-24T14:46:45;4.40;;;4.20;;
4808;SDS011;2418;49.930;8.606;2023-06-24T14:49:11;4.10;;;3.90;;
4808;SDS011;2418;49.930;8.606;2023-06-24T14:51:39;4.20;;;3.90;;
4808;SDS011;2418;49.930;8.606;2023-06-24T14:54:05;3.78;;;3.58;;
4808;SDS011;2418;49.930;8.606;2023-06-24T14:56:31;4.40;;;4.20;;
4808;SDS011;2418;49.930;8.606;2023-06-24T14:58:58;4.00;;;3.80;;
4808;SDS011;2418;49.930;8.606;2023-06-24T15:01:24;3.75;;;3.65;;
4808;SDS011;2418;49.930;8.606;2023-06-24T15:03:50;3.80;;;3.70;;
4808;SDS011;2418;49.930;8.606;2023-06-24T15:06:16;3.70;;;3.60;;
4808;SDS011;2418;49.930;8.606;2023-06-24T15:08:42;3.20;;;3.10;;
4808;SDS011;2418;49.930;8.606;2023-06-24T15:11:08;3.28;;;3.17;;
4808;SDS011;2418;49.930;8.606;2023-06-24T15:13:34;3.73;;;3.53;;
4808;SDS011;2418;49.930;8.606;2023-06-24T15:16:00;4.07;;;3.97;;
4808;SDS011;2418;49.930;8.606;2023-06-24T15:18:26;3.70;;;3.60;;
4808;SDS011;2418;49.930;8.606;2023-06-24T15:20:51;3.80;;;3.60;;
4808;SDS011;2418;49.930;8.606;2023-06-24T15:23:19;3.50;;;3.40;;
4808;SDS011;2418;49.930;8.606;2023-06-24T15:25:45;4.70;;;3.95;;